sensor_id;sensor_type;location;lat;lon;timestamp;P1;durP1;ratioP1;P2;durP2;ratioP2
7835;SDS011;3963;42.658;23.298;2022-09-12T00:01:14;5.27;;;4.77;;
7835;SDS011;3963;42.658;23.298;2022-09-12T00:03:43;5.63;;;4.47;;
7835;SDS011;3963;42.658;23.298;2022-09-12T00:06:11;5.33;;;4.83;;
7835;SDS011;3963;42.658;23.298;2022-09-12T00:08:41;7.17;;;4.53;;
7835;SDS011;3963;42.658;23.298;2022-09-12T00:11:09;9.00;;;5.40;;
7835;SDS011;3963;42.658;23.298;2022-09-12T00:13:38;5.10;;;4.60;;
7835;SDS011;3963;42.658;23.298;2022-09-12T00:16:06;8.83;;;5.03;;
7835;SDS011;3963;42.658;23.298;2022-09-12T00:18:41;5.73;;;4.80;;
7835;SDS011;3963;42.658;23.298;2022-09-12T00:21:10;5.73;;;5.00;;
7835;SDS011;3963;42.658;23.298;2022-09-12T00:23:38;5.33;;;4.60;;
7835;SDS011;3963;42.658;23.298;2022-09-12T00:26:05;5.43;;;4.77;;
7835;SDS011;3963;42.658;23.298;2022-09-12T00:28:33;6.70;;;4.63;;
7835;SDS011;3963;42.658;23.298;2022-09-12T00:31:02;5.00;;;4.50;;
7835;SDS011;3963;42.658;23.298;2022-09-12T00:33:31;7.73;;;4.80;;
7835;SDS011;3963;42.658;23.298;2022-09-12T02:31:19;4.10;;;2.90;;
7835;SDS011;3963;42.658;23.298;2022-09-12T02:33:52;3.20;;;2.60;;
7835;SDS011;3963;42.658;23.298;2022-09-12T02:36:33;3.37;;;2.70;;
7835;SDS011;3963;42.658;23.298;2022-09-12T02:39:07;4.07;;;2.53;;
7835;SDS011;3963;42.658;23.298;2022-09-12T02:41:34;3.37;;;2.50;;
7835;SDS011;3963;42.658;23.298;2022-09-12T02:44:02;3.40;;;2.60;;
7835;SDS011;3963;42.658;23.298;2022-09-12T02:46:32;4.20;;;2.50;;
7835;SDS011;3963;42.658;23.298;2022-09-12T02:49:04;3.30;;;2.70;;
7835;SDS011;3963;42.658;23.298;2022-09-12T02:51:31;3.27;;;2.87;;
7835;SDS011;3963;42.658;23.298;2022-09-12T02:53:58;3.20;;;2.70;;
7835;SDS011;3963;42.658;23.298;2022-09-12T02:56:26;2.90;;;2.40;;
7835;SDS011;3963;42.658;23.298;2022-09-12T02:58:55;3.13;;;2.63;;
7835;SDS011;3963;42.658;23.298;2022-09-12T03:01:28;3.50;;;2.70;;
7835;SDS011;3963;42.658;23.298;2022-09-12T03:04:18;7.97;;;2.63;;
7835;SDS011;3963;42.658;23.298;2022-09-12T03:07:10;2.90;;;2.47;;
7835;SDS011;3963;42.658;23.298;2022-09-12T03:09:44;4.40;;;2.50;;
7835;SDS011;3963;42.658;23.298;2022-09-12T03:12:18;3.40;;;2.27;;
7835;SDS011;3963;42.658;23.298;2022-09-12T03:15:10;3.37;;;2.60;;
7835;SDS011;3963;42.658;23.298;2022-09-12T03:17:53;3.53;;;2.70;;
7835;SDS011;3963;42.658;23.298;2022-09-12T03:20:33;4.83;;;2.80;;
7835;SDS011;3963;42.658;23.298;2022-09-12T03:23:11;3.27;;;2.70;;
7835;SDS011;3963;42.658;23.298;2022-09-12T03:25:48;3.17;;;2.63;;
7835;SDS011;3963;42.658;23.298;2022-09-12T03:28:19;4.17;;;2.70;;
7835;SDS011;3963;42.658;23.298;2022-09-12T03:30:48;3.33;;;3.03;;
7835;SDS011;3963;42.658;23.298;2022-09-12T03:33:20;4.17;;;2.87;;
7835;SDS011;3963;42.658;23.298;2022-09-12T03:35:48;3.77;;;3.03;;
7835;SDS011;3963;42.658;23.298;2022-09-12T03:38:15;3.40;;;2.80;;
7835;SDS011;3963;42.658;23.298;2022-09-12T03:40:42;3.17;;;2.47;;
7835;SDS011;3963;42.658;23.298;2022-09-12T03:43:10;3.20;;;2.90;;
7835;SDS011;3963;42.658;23.298;2022-09-12T03:45:37;4.07;;;3.13;;
7835;SDS011;3963;42.658;23.298;2022-09-12T03:48:04;4.50;;;3.13;;
7835;SDS011;3963;42.658;23.298;2022-09-12T03:50:34;4.00;;;2.90;;
7835;SDS011;3963;42.658;23.298;2022-09-12T03:53:01;3.10;;;2.80;;
7835;SDS011;3963;42.658;23.298;2022-09-12T03:55:29;3.53;;;3.23;;
7835;SDS011;3963;42.658;23.298;2022-09-12T03:57:56;4.10;;;3.10;;
7835;SDS011;3963;42.658;23.298;2022-09-12T04:00:23;3.77;;;3.10;;
7835;SDS011;3963;42.658;23.298;2022-09-12T04:02:52;5.17;;;3.60;;
7835;SDS011;3963;42.658;23.298;2022-09-12T04:05:20;4.40;;;3.50;;
7835;SDS011;3963;42.658;23.298;2022-09-12T04:07:49;6.47;;;4.37;;
7835;SDS011;3963;42.658;23.298;2022-09-12T04:10:16;4.67;;;3.60;;
7835;SDS011;3963;42.658;23.298;2022-09-12T04:12:44;5.10;;;3.87;;
7835;SDS011;3963;42.658;23.298;2022-09-12T04:15:11;4.93;;;4.27;;
7835;SDS011;3963;42.658;23.298;2022-09-12T04:17:38;4.90;;;4.23;;
7835;SDS011;3963;42.658;23.298;2022-09-12T04:20:05;5.27;;;4.33;;
7835;SDS011;3963;42.658;23.298;2022-09-12T04:22:32;7.23;;;4.83;;
7835;SDS011;3963;42.658;23.298;2022-09-12T04:25:01;5.20;;;4.70;;
7835;SDS011;3963;42.658;23.298;2022-09-12T04:27:28;5.67;;;5.17;;
7835;SDS011;3963;42.658;23.298;2022-09-12T04:29:55;5.80;;;5.20;;
7835;SDS011;3963;42.658;23.298;2022-09-12T04:32:23;6.33;;;5.67;;
7835;SDS011;3963;42.658;23.298;2022-09-12T04:34:50;5.80;;;5.20;;
7835;SDS011;3963;42.658;23.298;2022-09-12T04:37:17;4.87;;;4.37;;
7835;SDS011;3963;42.658;23.298;2022-09-12T04:39:44;8.40;;;5.30;;
7835;SDS011;3963;42.658;23.298;2022-09-12T04:42:14;5.77;;;5.13;;
7835;SDS011;3963;42.658;23.298;2022-09-12T04:44:41;7.87;;;5.13;;
7835;SDS011;3963;42.658;23.298;2022-09-12T04:47:09;5.70;;;5.03;;
7835;SDS011;3963;42.658;23.298;2022-09-12T04:49:36;8.30;;;6.07;;
7835;SDS011;3963;42.658;23.298;2022-09-12T04:52:03;5.73;;;5.17;;
7835;SDS011;3963;42.658;23.298;2022-09-12T04:54:30;6.83;;;5.90;;
7835;SDS011;3963;42.658;23.298;2022-09-12T04:56:57;6.43;;;5.77;;
7835;SDS011;3963;42.658;23.298;2022-09-12T04:59:26;9.43;;;5.77;;
7835;SDS011;3963;42.658;23.298;2022-09-12T05:01:52;9.17;;;5.73;;
7835;SDS011;3963;42.658;23.298;2022-09-12T05:04:20;6.90;;;5.70;;
7835;SDS011;3963;42.658;23.298;2022-09-12T05:06:47;8.77;;;5.33;;
7835;SDS011;3963;42.658;23.298;2022-09-12T05:09:14;7.10;;;5.67;;
7835;SDS011;3963;42.658;23.298;2022-09-12T05:11:41;8.60;;;5.63;;
7835;SDS011;3963;42.658;23.298;2022-09-12T05:14:10;7.20;;;5.00;;
7835;SDS011;3963;42.658;23.298;2022-09-12T05:16:39;6.07;;;4.83;;
7835;SDS011;3963;42.658;23.298;2022-09-12T05:19:06;6.87;;;5.10;;
7835;SDS011;3963;42.658;23.298;2022-09-12T05:21:33;6.97;;;4.60;;
7835;SDS011;3963;42.658;23.298;2022-09-12T05:24:00;5.77;;;4.63;;
7835;SDS011;3963;42.658;23.298;2022-09-12T05:26:30;4.70;;;4.20;;
7835;SDS011;3963;42.658;23.298;2022-09-12T05:28:57;6.00;;;4.90;;
7835;SDS011;3963;42.658;23.298;2022-09-12T05:31:24;4.47;;;4.07;;
7835;SDS011;3963;42.658;23.298;2022-09-12T05:33:54;5.70;;;4.10;;
7835;SDS011;3963;42.658;23.298;2022-09-12T05:36:22;5.60;;;4.23;;
7835;SDS011;3963;42.658;23.298;2022-09-12T05:38:50;7.13;;;4.90;;
7835;SDS011;3963;42.658;23.298;2022-09-12T05:41:17;5.23;;;4.40;;
7835;SDS011;3963;42.658;23.298;2022-09-12T05:43:45;7.33;;;5.27;;
7835;SDS011;3963;42.658;23.298;2022-09-12T05:46:17;8.77;;;4.80;;
7835;SDS011;3963;42.658;23.298;2022-09-12T05:48:45;5.20;;;4.70;;
7835;SDS011;3963;42.658;23.298;2022-09-12T05:51:15;5.70;;;5.10;;
7835;SDS011;3963;42.658;23.298;2022-09-12T05:53:45;6.03;;;5.10;;
7835;SDS011;3963;42.658;23.298;2022-09-12T05:56:14;6.40;;;5.07;;
7835;SDS011;3963;42.658;23.298;2022-09-12T05:58:43;6.03;;;5.40;;
7835;SDS011;3963;42.658;23.298;2022-09-12T06:01:12;5.43;;;4.93;;
7835;SDS011;3963;42.658;23.298;2022-09-12T06:03:41;6.57;;;5.53;;
7835;SDS011;3963;42.658;23.298;2022-09-12T06:06:09;6.00;;;4.70;;
7835;SDS011;3963;42.658;23.298;2022-09-12T06:08:39;5.57;;;4.77;;
7835;SDS011;3963;42.658;23.298;2022-09-12T06:11:08;7.13;;;4.67;;
7835;SDS011;3963;42.658;23.298;2022-09-12T06:13:37;8.03;;;5.13;;
7835;SDS011;3963;42.658;23.298;2022-09-12T06:16:05;5.20;;;4.70;;
7835;SDS011;3963;42.658;23.298;2022-09-12T06:18:34;4.87;;;4.47;;
7835;SDS011;3963;42.658;23.298;2022-09-12T06:21:01;6.00;;;4.83;;
7835;SDS011;3963;42.658;23.298;2022-09-12T06:23:29;6.77;;;5.17;;
7835;SDS011;3963;42.658;23.298;2022-09-12T06:25:58;5.60;;;5.00;;
7835;SDS011;3963;42.658;23.298;2022-09-12T06:28:25;6.97;;;6.17;;
7835;SDS011;3963;42.658;23.298;2022-09-12T06:30:52;6.33;;;5.60;;
7835;SDS011;3963;42.658;23.298;2022-09-12T06:33:19;6.53;;;5.83;;
7835;SDS011;3963;42.658;23.298;2022-09-12T06:35:46;6.73;;;5.50;;
7835;SDS011;3963;42.658;23.298;2022-09-12T06:38:13;5.73;;;4.77;;
7835;SDS011;3963;42.658;23.298;2022-09-12T06:40:40;6.27;;;5.30;;
7835;SDS011;3963;42.658;23.298;2022-09-12T06:43:10;6.27;;;5.30;;
7835;SDS011;3963;42.658;23.298;2022-09-12T06:45:38;5.87;;;5.27;;
7835;SDS011;3963;42.658;23.298;2022-09-12T06:48:05;9.03;;;5.73;;
7835;SDS011;3963;42.658;23.298;2022-09-12T06:50:32;5.87;;;5.27;;
7835;SDS011;3963;42.658;23.298;2022-09-12T06:52:59;5.70;;;5.20;;
7835;SDS011;3963;42.658;23.298;2022-09-12T06:55:26;5.60;;;5.10;;
7835;SDS011;3963;42.658;23.298;2022-09-12T06:57:53;7.10;;;5.17;;
7835;SDS011;3963;42.658;23.298;2022-09-12T07:00:21;7.07;;;5.47;;
7835;SDS011;3963;42.658;23.298;2022-09-12T07:02:52;5.80;;;5.20;;
7835;SDS011;3963;42.658;23.298;2022-09-12T07:05:20;6.43;;;5.47;;
7835;SDS011;3963;42.658;23.298;2022-09-12T07:07:47;5.30;;;4.80;;
7835;SDS011;3963;42.658;23.298;2022-09-12T07:10:14;7.23;;;5.67;;
7835;SDS011;3963;42.658;23.298;2022-09-12T07:12:41;8.57;;;6.53;;
7835;SDS011;3963;42.658;23.298;2022-09-12T07:15:08;7.03;;;5.70;;
7835;SDS011;3963;42.658;23.298;2022-09-12T07:17:37;6.50;;;5.80;;
7835;SDS011;3963;42.658;23.298;2022-09-12T07:20:04;9.80;;;6.67;;
7835;SDS011;3963;42.658;23.298;2022-09-12T07:22:31;8.07;;;6.73;;
7835;SDS011;3963;42.658;23.298;2022-09-12T07:24:58;10.43;;;8.80;;
7835;SDS011;3963;42.658;23.298;2022-09-12T07:27:24;7.80;;;7.00;;
7835;SDS011;3963;42.658;23.298;2022-09-12T07:29:51;6.30;;;5.73;;
7835;SDS011;3963;42.658;23.298;2022-09-12T07:32:18;6.37;;;5.77;;
7835;SDS011;3963;42.658;23.298;2022-09-12T07:34:46;6.17;;;5.57;;
7835;SDS011;3963;42.658;23.298;2022-09-12T07:37:14;6.43;;;5.83;;
7835;SDS011;3963;42.658;23.298;2022-09-12T07:39:40;5.90;;;5.30;;
7835;SDS011;3963;42.658;23.298;2022-09-12T07:42:07;6.20;;;5.60;;
7835;SDS011;3963;42.658;23.298;2022-09-12T07:44:35;6.47;;;5.80;;
7835;SDS011;3963;42.658;23.298;2022-09-12T07:47:02;6.17;;;5.43;;
7835;SDS011;3963;42.658;23.298;2022-09-12T07:49:29;7.53;;;5.50;;
7835;SDS011;3963;42.658;23.298;2022-09-12T07:51:57;6.60;;;6.00;;
7835;SDS011;3963;42.658;23.298;2022-09-12T07:54:24;6.60;;;5.67;;
7835;SDS011;3963;42.658;23.298;2022-09-12T07:56:50;6.47;;;5.87;;
7835;SDS011;3963;42.658;23.298;2022-09-12T07:59:17;5.80;;;5.30;;
7835;SDS011;3963;42.658;23.298;2022-09-12T08:01:44;5.60;;;5.10;;
7835;SDS011;3963;42.658;23.298;2022-09-12T08:04:11;5.60;;;5.10;;
7835;SDS011;3963;42.658;23.298;2022-09-12T08:06:38;5.93;;;5.33;;
7835;SDS011;3963;42.658;23.298;2022-09-12T08:09:06;6.60;;;5.20;;
7835;SDS011;3963;42.658;23.298;2022-09-12T08:11:33;5.20;;;4.67;;
7835;SDS011;3963;42.658;23.298;2022-09-12T08:14:00;4.83;;;4.27;;
7835;SDS011;3963;42.658;23.298;2022-09-12T08:16:30;4.60;;;4.20;;
7835;SDS011;3963;42.658;23.298;2022-09-12T08:18:59;4.53;;;4.13;;
7835;SDS011;3963;42.658;23.298;2022-09-12T08:21:27;4.97;;;4.37;;
7835;SDS011;3963;42.658;23.298;2022-09-12T08:23:56;6.07;;;4.43;;
7835;SDS011;3963;42.658;23.298;2022-09-12T08:26:26;4.70;;;4.03;;
7835;SDS011;3963;42.658;23.298;2022-09-12T08:28:53;6.50;;;3.93;;
7835;SDS011;3963;42.658;23.298;2022-09-12T08:31:21;10.67;;;3.93;;
7835;SDS011;3963;42.658;23.298;2022-09-12T08:33:49;4.10;;;3.80;;
7835;SDS011;3963;42.658;23.298;2022-09-12T08:36:17;4.47;;;3.30;;
7835;SDS011;3963;42.658;23.298;2022-09-12T08:38:46;7.43;;;3.60;;
7835;SDS011;3963;42.658;23.298;2022-09-12T08:41:18;3.50;;;3.20;;
7835;SDS011;3963;42.658;23.298;2022-09-12T08:43:56;3.50;;;3.20;;
7835;SDS011;3963;42.658;23.298;2022-09-12T08:46:41;4.00;;;3.60;;
7835;SDS011;3963;42.658;23.298;2022-09-12T08:49:18;3.67;;;3.37;;
7835;SDS011;3963;42.658;23.298;2022-09-12T08:51:53;3.60;;;3.30;;
7835;SDS011;3963;42.658;23.298;2022-09-12T08:54:24;4.10;;;3.80;;
7835;SDS011;3963;42.658;23.298;2022-09-12T08:56:55;3.93;;;3.50;;
7835;SDS011;3963;42.658;23.298;2022-09-12T08:59:28;4.57;;;4.17;;
7835;SDS011;3963;42.658;23.298;2022-09-12T09:02:00;6.03;;;4.37;;
7835;SDS011;3963;42.658;23.298;2022-09-12T09:04:35;4.47;;;4.07;;
7835;SDS011;3963;42.658;23.298;2022-09-12T09:07:15;4.97;;;4.47;;
7835;SDS011;3963;42.658;23.298;2022-09-12T09:09:58;7.50;;;4.90;;
7835;SDS011;3963;42.658;23.298;2022-09-12T09:12:36;5.13;;;4.60;;
7835;SDS011;3963;42.658;23.298;2022-09-12T09:15:16;5.87;;;4.37;;
7835;SDS011;3963;42.658;23.298;2022-09-12T09:17:58;4.90;;;4.50;;
7835;SDS011;3963;42.658;23.298;2022-09-12T09:20:29;5.07;;;4.37;;
7835;SDS011;3963;42.658;23.298;2022-09-12T09:23:02;4.57;;;4.17;;
7835;SDS011;3963;42.658;23.298;2022-09-12T09:25:38;5.90;;;4.40;;
7835;SDS011;3963;42.658;23.298;2022-09-12T09:28:12;4.47;;;3.80;;
7835;SDS011;3963;42.658;23.298;2022-09-12T09:30:44;4.30;;;3.87;;
7835;SDS011;3963;42.658;23.298;2022-09-12T09:33:14;4.17;;;3.73;;
7835;SDS011;3963;42.658;23.298;2022-09-12T09:35:47;3.90;;;3.60;;
7835;SDS011;3963;42.658;23.298;2022-09-12T09:38:22;4.10;;;3.80;;
7835;SDS011;3963;42.658;23.298;2022-09-12T09:40:55;4.50;;;4.10;;
7835;SDS011;3963;42.658;23.298;2022-09-12T09:43:30;5.63;;;4.27;;
7835;SDS011;3963;42.658;23.298;2022-09-12T09:45:58;3.83;;;3.33;;
7835;SDS011;3963;42.658;23.298;2022-09-12T09:48:26;3.67;;;3.37;;
7835;SDS011;3963;42.658;23.298;2022-09-12T09:50:56;3.67;;;3.37;;
7835;SDS011;3963;42.658;23.298;2022-09-12T09:53:28;3.90;;;3.60;;
7835;SDS011;3963;42.658;23.298;2022-09-12T09:56:00;4.63;;;3.73;;
7835;SDS011;3963;42.658;23.298;2022-09-12T09:58:31;4.53;;;4.13;;
7835;SDS011;3963;42.658;23.298;2022-09-12T10:01:00;5.53;;;4.27;;
7835;SDS011;3963;42.658;23.298;2022-09-12T10:03:32;4.10;;;3.70;;
7835;SDS011;3963;42.658;23.298;2022-09-12T10:06:05;4.23;;;3.87;;
7835;SDS011;3963;42.658;23.298;2022-09-12T10:08:34;4.63;;;3.83;;
7835;SDS011;3963;42.658;23.298;2022-09-12T10:11:03;5.23;;;4.20;;
7835;SDS011;3963;42.658;23.298;2022-09-12T10:13:39;5.43;;;3.57;;
7835;SDS011;3963;42.658;23.298;2022-09-12T10:16:18;4.23;;;3.83;;
7835;SDS011;3963;42.658;23.298;2022-09-12T10:18:48;6.53;;;3.93;;
7835;SDS011;3963;42.658;23.298;2022-09-12T10:21:25;4.33;;;3.63;;
7835;SDS011;3963;42.658;23.298;2022-09-12T10:24:03;4.13;;;3.73;;
7835;SDS011;3963;42.658;23.298;2022-09-12T10:26:39;6.90;;;4.17;;
7835;SDS011;3963;42.658;23.298;2022-09-12T10:29:13;4.57;;;4.17;;
7835;SDS011;3963;42.658;23.298;2022-09-12T10:31:46;8.03;;;5.10;;
7835;SDS011;3963;42.658;23.298;2022-09-12T10:34:23;5.40;;;4.73;;
7835;SDS011;3963;42.658;23.298;2022-09-12T10:36:58;5.17;;;4.63;;
7835;SDS011;3963;42.658;23.298;2022-09-12T10:39:27;6.13;;;4.80;;
7835;SDS011;3963;42.658;23.298;2022-09-12T10:41:55;5.83;;;5.23;;
7835;SDS011;3963;42.658;23.298;2022-09-12T10:44:23;5.40;;;4.90;;
7835;SDS011;3963;42.658;23.298;2022-09-12T10:46:53;5.40;;;4.47;;
7835;SDS011;3963;42.658;23.298;2022-09-12T10:49:25;5.00;;;4.50;;
7835;SDS011;3963;42.658;23.298;2022-09-12T10:51:54;5.30;;;4.80;;
7835;SDS011;3963;42.658;23.298;2022-09-12T10:54:24;6.13;;;4.70;;
7835;SDS011;3963;42.658;23.298;2022-09-12T10:57:00;5.43;;;4.93;;
7835;SDS011;3963;42.658;23.298;2022-09-12T10:59:48;5.20;;;4.70;;
7835;SDS011;3963;42.658;23.298;2022-09-12T11:02:32;9.63;;;5.00;;
7835;SDS011;3963;42.658;23.298;2022-09-12T11:05:11;5.33;;;4.83;;
7835;SDS011;3963;42.658;23.298;2022-09-12T11:07:44;6.13;;;4.50;;
7835;SDS011;3963;42.658;23.298;2022-09-12T11:10:16;7.03;;;5.23;;
7835;SDS011;3963;42.658;23.298;2022-09-12T11:12:52;6.90;;;5.47;;
7835;SDS011;3963;42.658;23.298;2022-09-12T11:15:31;7.13;;;5.23;;
7835;SDS011;3963;42.658;23.298;2022-09-12T11:18:11;5.03;;;4.53;;
7835;SDS011;3963;42.658;23.298;2022-09-12T11:20:53;7.93;;;5.37;;
7835;SDS011;3963;42.658;23.298;2022-09-12T11:23:40;5.67;;;5.07;;
7835;SDS011;3963;42.658;23.298;2022-09-12T11:26:18;5.40;;;4.90;;
7835;SDS011;3963;42.658;23.298;2022-09-12T11:28:52;6.93;;;6.00;;
7835;SDS011;3963;42.658;23.298;2022-09-12T11:31:36;7.40;;;5.97;;
7835;SDS011;3963;42.658;23.298;2022-09-12T11:34:15;6.03;;;5.27;;
7835;SDS011;3963;42.658;23.298;2022-09-12T11:36:49;5.50;;;5.00;;
7835;SDS011;3963;42.658;23.298;2022-09-12T11:39:33;6.30;;;5.70;;
7835;SDS011;3963;42.658;23.298;2022-09-12T11:42:04;6.87;;;5.87;;
7835;SDS011;3963;42.658;23.298;2022-09-12T11:44:42;5.87;;;4.87;;
7835;SDS011;3963;42.658;23.298;2022-09-12T11:47:13;6.70;;;5.73;;
7835;SDS011;3963;42.658;23.298;2022-09-12T11:49:44;6.80;;;5.77;;
7835;SDS011;3963;42.658;23.298;2022-09-12T11:52:15;5.93;;;5.33;;
7835;SDS011;3963;42.658;23.298;2022-09-12T11:54:45;6.07;;;5.30;;
7835;SDS011;3963;42.658;23.298;2022-09-12T11:57:16;6.97;;;5.50;;
7835;SDS011;3963;42.658;23.298;2022-09-12T11:59:48;6.57;;;5.43;;
7835;SDS011;3963;42.658;23.298;2022-09-12T12:02:21;5.73;;;5.07;;
7835;SDS011;3963;42.658;23.298;2022-09-12T12:05:00;5.63;;;5.13;;
7835;SDS011;3963;42.658;23.298;2022-09-12T12:07:36;5.10;;;4.60;;
7835;SDS011;3963;42.658;23.298;2022-09-12T12:10:19;5.17;;;4.67;;
7835;SDS011;3963;42.658;23.298;2022-09-12T12:12:50;5.10;;;4.60;;
7835;SDS011;3963;42.658;23.298;2022-09-12T12:15:19;4.10;;;3.70;;
7835;SDS011;3963;42.658;23.298;2022-09-12T12:17:58;4.70;;;4.13;;
7835;SDS011;3963;42.658;23.298;2022-09-12T12:20:28;4.23;;;3.73;;
7835;SDS011;3963;42.658;23.298;2022-09-12T12:22:55;6.67;;;3.80;;
7835;SDS011;3963;42.658;23.298;2022-09-12T12:25:24;6.17;;;4.40;;
7835;SDS011;3963;42.658;23.298;2022-09-12T12:28:02;6.63;;;4.33;;
7835;SDS011;3963;42.658;23.298;2022-09-12T12:36:36;5.03;;;4.53;;
7835;SDS011;3963;42.658;23.298;2022-09-12T12:51:32;6.00;;;3.47;;
7835;SDS011;3963;42.658;23.298;2022-09-12T12:54:04;3.60;;;3.30;;
7835;SDS011;3963;42.658;23.298;2022-09-12T12:56:59;5.30;;;3.80;;
7835;SDS011;3963;42.658;23.298;2022-09-12T12:59:26;3.60;;;3.27;;
7835;SDS011;3963;42.658;23.298;2022-09-12T13:01:54;9.87;;;3.70;;
7835;SDS011;3963;42.658;23.298;2022-09-12T13:04:25;4.73;;;3.57;;
7835;SDS011;3963;42.658;23.298;2022-09-12T13:06:58;4.27;;;3.77;;
7835;SDS011;3963;42.658;23.298;2022-09-12T13:09:29;6.00;;;4.37;;
7835;SDS011;3963;42.658;23.298;2022-09-12T13:12:00;3.97;;;3.67;;
7835;SDS011;3963;42.658;23.298;2022-09-12T13:14:33;4.90;;;4.30;;
7835;SDS011;3963;42.658;23.298;2022-09-12T13:17:03;5.23;;;4.10;;
7835;SDS011;3963;42.658;23.298;2022-09-12T13:19:35;5.23;;;4.70;;
7835;SDS011;3963;42.658;23.298;2022-09-12T13:22:04;4.63;;;4.13;;
7835;SDS011;3963;42.658;23.298;2022-09-12T13:24:33;5.27;;;4.50;;
7835;SDS011;3963;42.658;23.298;2022-09-12T13:27:14;5.00;;;3.70;;
7835;SDS011;3963;42.658;23.298;2022-09-12T13:29:42;5.33;;;4.90;;
7835;SDS011;3963;42.658;23.298;2022-09-12T13:32:09;4.77;;;4.27;;
7835;SDS011;3963;42.658;23.298;2022-09-12T13:34:39;4.10;;;3.70;;
7835;SDS011;3963;42.658;23.298;2022-09-12T13:37:23;4.90;;;4.40;;
7835;SDS011;3963;42.658;23.298;2022-09-12T13:40:10;4.57;;;4.17;;
7835;SDS011;3963;42.658;23.298;2022-09-12T13:42:50;4.87;;;4.13;;
7835;SDS011;3963;42.658;23.298;2022-09-12T13:45:31;4.57;;;4.10;;
7835;SDS011;3963;42.658;23.298;2022-09-12T13:48:02;6.70;;;4.50;;
7835;SDS011;3963;42.658;23.298;2022-09-12T13:50:31;4.30;;;3.90;;
7835;SDS011;3963;42.658;23.298;2022-09-12T13:53:05;5.07;;;4.67;;
7835;SDS011;3963;42.658;23.298;2022-09-12T13:55:40;5.17;;;4.67;;
7835;SDS011;3963;42.658;23.298;2022-09-12T13:58:14;5.67;;;5.17;;
7835;SDS011;3963;42.658;23.298;2022-09-12T14:00:44;6.23;;;5.63;;
7835;SDS011;3963;42.658;23.298;2022-09-12T14:03:19;5.67;;;5.17;;
7835;SDS011;3963;42.658;23.298;2022-09-12T14:06:08;6.70;;;5.97;;
7835;SDS011;3963;42.658;23.298;2022-09-12T14:08:38;6.90;;;5.57;;
7835;SDS011;3963;42.658;23.298;2022-09-12T14:11:07;8.23;;;6.30;;
7835;SDS011;3963;42.658;23.298;2022-09-12T14:13:35;7.30;;;6.20;;
7835;SDS011;3963;42.658;23.298;2022-09-12T14:16:03;7.20;;;6.23;;
7835;SDS011;3963;42.658;23.298;2022-09-12T14:18:33;6.57;;;5.90;;
7835;SDS011;3963;42.658;23.298;2022-09-12T14:21:07;6.03;;;5.53;;
7835;SDS011;3963;42.658;23.298;2022-09-12T14:23:39;6.07;;;5.47;;
7835;SDS011;3963;42.658;23.298;2022-09-12T14:26:08;5.73;;;5.20;;
7835;SDS011;3963;42.658;23.298;2022-09-12T14:28:38;5.90;;;5.40;;
7835;SDS011;3963;42.658;23.298;2022-09-12T14:31:17;6.77;;;6.03;;
7835;SDS011;3963;42.658;23.298;2022-09-12T14:33:48;8.00;;;7.20;;
7835;SDS011;3963;42.658;23.298;2022-09-12T14:36:17;8.60;;;7.70;;
7835;SDS011;3963;42.658;23.298;2022-09-12T14:38:49;8.43;;;5.70;;
7835;SDS011;3963;42.658;23.298;2022-09-12T14:41:23;7.87;;;5.80;;
7835;SDS011;3963;42.658;23.298;2022-09-12T14:43:53;5.70;;;5.20;;
7835;SDS011;3963;42.658;23.298;2022-09-12T14:46:23;6.20;;;5.67;;
7835;SDS011;3963;42.658;23.298;2022-09-12T14:48:56;5.53;;;5.03;;
7835;SDS011;3963;42.658;23.298;2022-09-12T14:51:26;5.70;;;5.20;;
7835;SDS011;3963;42.658;23.298;2022-09-12T14:53:58;5.00;;;4.60;;
7835;SDS011;3963;42.658;23.298;2022-09-12T14:56:36;5.30;;;4.80;;
7835;SDS011;3963;42.658;23.298;2022-09-12T15:02:13;5.83;;;5.33;;
7835;SDS011;3963;42.658;23.298;2022-09-12T15:04:47;5.87;;;5.37;;
7835;SDS011;3963;42.658;23.298;2022-09-12T15:07:14;6.17;;;5.67;;
7835;SDS011;3963;42.658;23.298;2022-09-12T15:09:48;6.90;;;5.43;;
7835;SDS011;3963;42.658;23.298;2022-09-12T15:12:14;6.20;;;5.60;;
7835;SDS011;3963;42.658;23.298;2022-09-12T15:14:41;5.30;;;4.80;;
7835;SDS011;3963;42.658;23.298;2022-09-12T15:17:08;5.53;;;4.97;;
7835;SDS011;3963;42.658;23.298;2022-09-12T15:19:35;5.60;;;5.10;;
7835;SDS011;3963;42.658;23.298;2022-09-12T15:22:02;8.17;;;5.20;;
7835;SDS011;3963;42.658;23.298;2022-09-12T15:24:28;6.10;;;5.50;;
7835;SDS011;3963;42.658;23.298;2022-09-12T15:26:56;6.20;;;5.60;;
7835;SDS011;3963;42.658;23.298;2022-09-12T15:29:23;6.20;;;5.60;;
7835;SDS011;3963;42.658;23.298;2022-09-12T15:31:50;5.60;;;5.10;;
7835;SDS011;3963;42.658;23.298;2022-09-12T15:34:17;6.37;;;5.77;;
7835;SDS011;3963;42.658;23.298;2022-09-12T15:36:44;6.10;;;5.60;;
7835;SDS011;3963;42.658;23.298;2022-09-12T15:39:11;7.40;;;5.67;;
7835;SDS011;3963;42.658;23.298;2022-09-12T15:41:37;8.23;;;6.57;;
7835;SDS011;3963;42.658;23.298;2022-09-12T15:44:06;7.10;;;5.37;;
7835;SDS011;3963;42.658;23.298;2022-09-12T15:46:37;8.23;;;5.93;;
7835;SDS011;3963;42.658;23.298;2022-09-12T15:49:04;5.43;;;4.93;;
7835;SDS011;3963;42.658;23.298;2022-09-12T15:51:31;7.07;;;5.27;;
7835;SDS011;3963;42.658;23.298;2022-09-12T15:53:58;6.27;;;5.77;;
7835;SDS011;3963;42.658;23.298;2022-09-12T15:56:27;6.63;;;5.63;;
7835;SDS011;3963;42.658;23.298;2022-09-12T15:58:53;5.63;;;5.03;;
7835;SDS011;3963;42.658;23.298;2022-09-12T16:01:22;5.30;;;4.80;;
7835;SDS011;3963;42.658;23.298;2022-09-12T16:03:49;5.80;;;5.30;;
7835;SDS011;3963;42.658;23.298;2022-09-12T16:06:15;5.90;;;5.37;;
7835;SDS011;3963;42.658;23.298;2022-09-12T16:08:42;5.77;;;5.17;;
7835;SDS011;3963;42.658;23.298;2022-09-12T16:11:09;6.50;;;5.80;;
7835;SDS011;3963;42.658;23.298;2022-09-12T16:13:43;10.67;;;8.53;;
7835;SDS011;3963;42.658;23.298;2022-09-12T16:16:10;7.00;;;6.30;;
7835;SDS011;3963;42.658;23.298;2022-09-12T16:18:39;7.03;;;6.33;;
7835;SDS011;3963;42.658;23.298;2022-09-12T16:21:06;7.10;;;6.03;;
7835;SDS011;3963;42.658;23.298;2022-09-12T16:23:33;7.57;;;5.37;;
7835;SDS011;3963;42.658;23.298;2022-09-12T16:26:00;5.50;;;4.73;;
7835;SDS011;3963;42.658;23.298;2022-09-12T16:28:28;5.83;;;5.07;;
7835;SDS011;3963;42.658;23.298;2022-09-12T16:30:57;6.23;;;5.63;;
7835;SDS011;3963;42.658;23.298;2022-09-12T16:33:25;5.43;;;4.93;;
7835;SDS011;3963;42.658;23.298;2022-09-12T16:36:00;6.53;;;5.07;;
7835;SDS011;3963;42.658;23.298;2022-09-12T16:38:28;8.33;;;5.00;;
7835;SDS011;3963;42.658;23.298;2022-09-12T16:40:58;6.50;;;5.30;;
7835;SDS011;3963;42.658;23.298;2022-09-12T16:43:25;6.10;;;5.50;;
7835;SDS011;3963;42.658;23.298;2022-09-12T16:45:58;5.70;;;5.20;;
7835;SDS011;3963;42.658;23.298;2022-09-12T16:48:27;6.13;;;5.53;;
7835;SDS011;3963;42.658;23.298;2022-09-12T16:50:55;6.23;;;5.63;;
7835;SDS011;3963;42.658;23.298;2022-09-12T16:53:24;5.37;;;4.97;;
7835;SDS011;3963;42.658;23.298;2022-09-12T16:55:51;6.00;;;5.50;;
7835;SDS011;3963;42.658;23.298;2022-09-12T16:58:18;6.33;;;5.70;;
7835;SDS011;3963;42.658;23.298;2022-09-12T17:00:45;5.57;;;5.07;;
7835;SDS011;3963;42.658;23.298;2022-09-12T17:03:12;6.57;;;5.87;;
7835;SDS011;3963;42.658;23.298;2022-09-12T17:05:40;5.73;;;5.23;;
7835;SDS011;3963;42.658;23.298;2022-09-12T17:08:07;6.47;;;5.83;;
7835;SDS011;3963;42.658;23.298;2022-09-12T17:10:36;5.93;;;5.43;;
7835;SDS011;3963;42.658;23.298;2022-09-12T17:13:06;7.90;;;5.93;;
7835;SDS011;3963;42.658;23.298;2022-09-12T17:15:35;5.50;;;5.00;;
7835;SDS011;3963;42.658;23.298;2022-09-12T17:18:02;5.23;;;4.73;;
7835;SDS011;3963;42.658;23.298;2022-09-12T17:20:29;5.30;;;4.80;;
7835;SDS011;3963;42.658;23.298;2022-09-12T17:22:56;5.50;;;5.00;;
7835;SDS011;3963;42.658;23.298;2022-09-12T17:25:23;6.17;;;5.57;;
7835;SDS011;3963;42.658;23.298;2022-09-12T17:27:53;6.77;;;5.20;;
7835;SDS011;3963;42.658;23.298;2022-09-12T17:30:20;6.20;;;5.00;;
7835;SDS011;3963;42.658;23.298;2022-09-12T17:32:47;5.40;;;4.90;;
7835;SDS011;3963;42.658;23.298;2022-09-12T17:35:16;4.93;;;4.50;;
7835;SDS011;3963;42.658;23.298;2022-09-12T17:37:43;8.77;;;5.43;;